sensor_id;sensor_type;location;lat;lon;timestamp;pressure;altitude;pressure_sealevel;temperature;humidity
21588;BME280;10956;48.878;13.316;2023-07-31T00:02:23;94280.44;;;14.67;100.00
21588;BME280;10956;48.878;13.316;2023-07-31T00:04:48;94290.56;;;14.65;100.00
21588;BME280;10956;48.878;13.316;2023-07-31T00:07:14;94285.81;;;14.62;100.00
21588;BME280;10956;48.878;13.316;2023-07-31T00:09:40;94282.19;;;14.58;100.00
21588;BME280;10956;48.878;13.316;2023-07-31T00:12:05;94280.38;;;14.53;100.00
21588;BME280;10956;48.878;13.316;2023-07-31T00:14:31;94290.00;;;14.49;100.00
21588;BME280;10956;48.878;13.316;2023-07-31T00:16:56;94276.03;;;14.43;100.00
21588;BME280;10956;48.878;13.316;2023-07-31T00:19:22;94284.00;;;14.38;100.00
21588;BME280;10956;48.878;13.316;2023-07-31T00:21:47;94281.72;;;14.32;100.00
21588;BME280;10956;48.878;13.316;2023-07-31T00:24:12;94280.44;;;14.29;100.00
21588;BME280;10956;48.878;13.316;2023-07-31T00:26:38;94285.59;;;14.20;100.00
21588;BME280;10956;48.878;13.316;2023-07-31T00:29:04;94286.94;;;14.18;100.00
21588;BME280;10956;48.878;13.316;2023-07-31T00:31:29;94284.28;;;14.18;100.00
21588;BME280;10956;48.878;13.316;2023-07-31T00:33:55;94280.06;;;14.17;100.00
21588;BME280;10956;48.878;13.316;2023-07-31T00:36:20;94287.00;;;14.13;100.00
21588;BME280;10956;48.878;13.316;2023-07-31T00:38:46;94280.91;;;14.12;100.00
21588;BME280;10956;48.878;13.316;2023-07-31T00:41:11;94286.22;;;14.12;100.00
21588;BME280;10956;48.878;13.316;2023-07-31T00:43:37;94278.56;;;14.11;100.00
21588;BME280;10956;48.878;13.316;2023-07-31T00:46:02;94283.06;;;14.10;100.00
21588;BME280;10956;48.878;13.316;2023-07-31T00:48:28;94280.13;;;14.12;100.00
21588;BME280;10956;48.878;13.316;2023-07-31T00:50:53;94281.06;;;14.02;100.00
21588;BME280;10956;48.878;13.316;2023-07-31T00:53:19;94276.09;;;13.96;100.00
21588;BME280;10956;48.878;13.316;2023-07-31T00:55:45;94276.72;;;13.87;100.00
21588;BME280;10956;48.878;13.316;2023-07-31T00:58:10;94266.19;;;13.82;100.00
21588;BME280;10956;48.878;13.316;2023-07-31T01:00:36;94274.19;;;13.77;100.00
21588;BME280;10956;48.878;13.316;2023-07-31T01:03:01;94269.47;;;13.74;100.00
21588;BME280;10956;48.878;13.316;2023-07-31T01:08:44;94274.88;;;13.64;100.00
21588;BME280;10956;48.878;13.316;2023-07-31T01:11:24;94263.28;;;13.60;100.00
21588;BME280;10956;48.878;13.316;2023-07-31T01:13:51;94262.78;;;13.58;100.00
21588;BME280;10956;48.878;13.316;2023-07-31T01:16:17;94260.69;;;13.55;100.00
21588;BME280;10956;48.878;13.316;2023-07-31T01:18:43;94264.41;;;13.54;100.00
21588;BME280;10956;48.878;13.316;2023-07-31T01:27:04;94250.78;;;13.42;100.00
21588;BME280;10956;48.878;13.316;2023-07-31T01:29:48;94252.69;;;13.36;100.00
21588;BME280;10956;48.878;13.316;2023-07-31T01:32:14;94248.19;;;13.37;100.00
21588;BME280;10956;48.878;13.316;2023-07-31T01:34:43;94249.75;;;13.38;100.00
21588;BME280;10956;48.878;13.316;2023-07-31T01:37:09;94246.28;;;13.42;100.00
21588;BME280;10956;48.878;13.316;2023-07-31T01:39:34;94247.84;;;13.43;100.00
21588;BME280;10956;48.878;13.316;2023-07-31T01:42:00;94243.34;;;13.44;100.00
21588;BME280;10956;48.878;13.316;2023-07-31T01:44:25;94245.16;;;13.48;100.00
21588;BME280;10956;48.878;13.316;2023-07-31T01:46:51;94241.94;;;13.28;100.00
21588;BME280;10956;48.878;13.316;2023-07-31T01:49:16;94244.13;;;13.20;100.00
21588;BME280;10956;48.878;13.316;2023-07-31T01:51:42;94245.47;;;13.18;100.00
21588;BME280;10956;48.878;13.316;2023-07-31T01:54:07;94235.69;;;13.13;100.00
21588;BME280;10956;48.878;13.316;2023-07-31T01:56:33;94223.03;;;13.10;100.00
21588;BME280;10956;48.878;13.316;2023-07-31T01:58:58;94237.88;;;13.06;100.00
21588;BME280;10956;48.878;13.316;2023-07-31T02:01:23;94230.78;;;13.02;100.00
21588;BME280;10956;48.878;13.316;2023-07-31T02:03:49;94226.84;;;12.99;100.00
21588;BME280;10956;48.878;13.316;2023-07-31T02:06:14;94235.38;;;12.91;100.00
21588;BME280;10956;48.878;13.316;2023-07-31T02:08:40;94237.50;;;12.89;100.00
21588;BME280;10956;48.878;13.316;2023-07-31T02:11:05;94228.84;;;12.83;100.00
21588;BME280;10956;48.878;13.316;2023-07-31T02:13:31;94225.91;;;12.85;100.00
21588;BME280;10956;48.878;13.316;2023-07-31T02:15:56;94230.13;;;12.86;100.00
21588;BME280;10956;48.878;13.316;2023-07-31T02:18:22;94230.66;;;12.88;100.00
21588;BME280;10956;48.878;13.316;2023-07-31T02:20:51;94234.59;;;12.90;100.00
21588;BME280;10956;48.878;13.316;2023-07-31T02:23:17;94230.88;;;12.91;100.00
21588;BME280;10956;48.878;13.316;2023-07-31T02:25:43;94231.66;;;12.92;100.00
21588;BME280;10956;48.878;13.316;2023-07-31T02:28:09;94239.59;;;12.92;100.00
21588;BME280;10956;48.878;13.316;2023-07-31T02:30:34;94230.09;;;12.91;100.00
21588;BME280;10956;48.878;13.316;2023-07-31T02:33:00;94227.50;;;12.86;100.00
21588;BME280;10956;48.878;13.316;2023-07-31T02:35:25;94222.75;;;12.83;100.00
21588;BME280;10956;48.878;13.316;2023-07-31T02:37:50;94225.41;;;12.83;100.00
21588;BME280;10956;48.878;13.316;2023-07-31T02:40:16;94222.28;;;12.76;100.00
21588;BME280;10956;48.878;13.316;2023-07-31T02:42:41;94220.16;;;12.78;100.00
21588;BME280;10956;48.878;13.316;2023-07-31T02:45:07;94226.53;;;12.77;100.00
21588;BME280;10956;48.878;13.316;2023-07-31T02:47:33;94226.00;;;12.75;100.00
21588;BME280;10956;48.878;13.316;2023-07-31T02:49:58;94225.44;;;12.78;100.00
21588;BME280;10956;48.878;13.316;2023-07-31T02:52:25;94221.19;;;12.82;100.00
21588;BME280;10956;48.878;13.316;2023-07-31T02:54:50;94226.97;;;12.84;100.00
21588;BME280;10956;48.878;13.316;2023-07-31T02:57:16;94233.84;;;12.85;100.00
21588;BME280;10956;48.878;13.316;2023-07-31T02:59:41;94226.94;;;12.89;100.00
21588;BME280;10956;48.878;13.316;2023-07-31T03:02:07;94228.28;;;12.86;100.00
21588;BME280;10956;48.878;13.316;2023-07-31T03:04:32;94231.44;;;12.88;100.00
21588;BME280;10956;48.878;13.316;2023-07-31T03:06:57;94227.41;;;12.96;100.00
21588;BME280;10956;48.878;13.316;2023-07-31T03:09:23;94230.56;;;12.98;100.00
21588;BME280;10956;48.878;13.316;2023-07-31T03:11:48;94227.97;;;12.93;100.00
21588;BME280;10956;48.878;13.316;2023-07-31T03:14:14;94224.81;;;12.91;100.00
21588;BME280;10956;48.878;13.316;2023-07-31T03:16:39;94230.66;;;12.88;100.00
21588;BME280;10956;48.878;13.316;2023-07-31T03:19:04;94222.44;;;12.89;100.00
21588;BME280;10956;48.878;13.316;2023-07-31T03:21:30;94224.34;;;12.84;100.00
21588;BME280;10956;48.878;13.316;2023-07-31T03:23:55;94227.59;;;12.76;100.00
21588;BME280;10956;48.878;13.316;2023-07-31T03:26:21;94220.25;;;12.68;100.00
21588;BME280;10956;48.878;13.316;2023-07-31T03:28:46;94214.44;;;12.66;100.00
21588;BME280;10956;48.878;13.316;2023-07-31T03:31:12;94216.53;;;12.69;100.00
21588;BME280;10956;48.878;13.316;2023-07-31T03:33:37;94218.63;;;12.72;100.00
21588;BME280;10956;48.878;13.316;2023-07-31T03:36:03;94211.22;;;12.74;100.00
21588;BME280;10956;48.878;13.316;2023-07-31T03:38:29;94224.09;;;12.80;100.00
21588;BME280;10956;48.878;13.316;2023-07-31T03:40:54;94230.13;;;12.86;100.00
21588;BME280;10956;48.878;13.316;2023-07-31T03:43:20;94224.34;;;12.84;100.00
21588;BME280;10956;48.878;13.316;2023-07-31T03:45:45;94217.47;;;12.83;100.00
21588;BME280;10956;48.878;13.316;2023-07-31T03:48:11;94221.19;;;12.82;100.00
21588;BME280;10956;48.878;13.316;2023-07-31T03:50:36;94214.56;;;12.84;100.00
21588;BME280;10956;48.878;13.316;2023-07-31T03:53:02;94213.72;;;12.89;100.00
21588;BME280;10956;48.878;13.316;2023-07-31T03:55:27;94214.22;;;12.91;100.00
21588;BME280;10956;48.878;13.316;2023-07-31T03:57:53;94214.47;;;12.94;100.00
21588;BME280;10956;48.878;13.316;2023-07-31T04:00:18;94217.38;;;12.93;100.00
21588;BME280;10956;48.878;13.316;2023-07-31T04:02:43;94218.72;;;12.90;100.00
21588;BME280;10956;48.878;13.316;2023-07-31T04:05:09;94214.22;;;12.91;100.00
21588;BME280;10956;48.878;13.316;2023-07-31T04:07:35;94226.38;;;12.92;100.00
21588;BME280;10956;48.878;13.316;2023-07-31T04:10:01;94226.47;;;12.82;100.00
21588;BME280;10956;48.878;13.316;2023-07-31T04:12:26;94230.19;;;12.81;100.00
21588;BME280;10956;48.878;13.316;2023-07-31T04:14:52;94228.06;;;12.83;100.00
21588;BME280;10956;48.878;13.316;2023-07-31T04:17:18;94233.25;;;12.93;100.00
21588;BME280;10956;48.878;13.316;2023-07-31T04:19:43;94234.22;;;13.02;100.00
21588;BME280;10956;48.878;13.316;2023-07-31T04:22:09;94237.84;;;13.11;100.00
21588;BME280;10956;48.878;13.316;2023-07-31T04:24:34;94232.53;;;13.16;100.00
21588;BME280;10956;48.878;13.316;2023-07-31T04:27:00;94220.03;;;13.22;100.00
21588;BME280;10956;48.878;13.316;2023-07-31T04:29:25;94230.28;;;13.29;100.00
21588;BME280;10956;48.878;13.316;2023-07-31T04:31:50;94216.94;;;13.39;100.00
21588;BME280;10956;48.878;13.316;2023-07-31T04:34:16;94232.19;;;13.47;100.00
21588;BME280;10956;48.878;13.316;2023-07-31T04:36:41;94223.41;;;13.51;100.00
21588;BME280;10956;48.878;13.316;2023-07-31T04:39:07;94226.53;;;13.77;100.00
21588;BME280;10956;48.878;13.316;2023-07-31T04:41:32;94218.97;;;13.89;100.00
21588;BME280;10956;48.878;13.316;2023-07-31T04:43:57;94224.41;;;13.98;100.00
21588;BME280;10956;48.878;13.316;2023-07-31T04:46:23;94219.25;;;14.07;100.00
21588;BME280;10956;48.878;13.316;2023-07-31T04:48:48;94213.31;;;14.15;100.00
21588;BME280;10956;48.878;13.316;2023-07-31T04:51:14;94209.38;;;14.31;100.00
21588;BME280;10956;48.878;13.316;2023-07-31T04:53:39;94202.56;;;14.44;100.00
21588;BME280;10956;48.878;13.316;2023-07-31T04:56:05;94202.81;;;14.61;100.00
21588;BME280;10956;48.878;13.316;2023-07-31T04:58:30;94204.66;;;14.79;100.00
21588;BME280;10956;48.878;13.316;2023-07-31T05:00:55;94204.75;;;14.88;100.00
21588;BME280;10956;48.878;13.316;2023-07-31T05:03:21;94203.59;;;14.94;100.00
21588;BME280;10956;48.878;13.316;2023-07-31T05:05:47;94199.38;;;14.93;100.00
21588;BME280;10956;48.878;13.316;2023-07-31T05:08:12;94205.34;;;14.85;100.00
21588;BME280;10956;48.878;13.316;2023-07-31T05:10:38;94213.31;;;14.85;100.00
21588;BME280;10956;48.878;13.316;2023-07-31T05:13:03;94201.03;;;14.89;100.00
21588;BME280;10956;48.878;13.316;2023-07-31T05:15:29;94209.00;;;14.89;100.00
21588;BME280;10956;48.878;13.316;2023-07-31T05:17:54;94210.56;;;14.90;100.00
21588;BME280;10956;48.878;13.316;2023-07-31T05:20:20;94211.97;;;15.01;100.00
21588;BME280;10956;48.878;13.316;2023-07-31T05:22:46;94208.63;;;15.09;100.00
21588;BME280;10956;48.878;13.316;2023-07-31T05:25:12;94212.28;;;15.13;100.00
21588;BME280;10956;48.878;13.316;2023-07-31T05:27:37;94214.53;;;15.20;100.00
21588;BME280;10956;48.878;13.316;2023-07-31T05:30:03;94218.47;;;15.23;100.00
21588;BME280;10956;48.878;13.316;2023-07-31T05:32:29;94220.44;;;15.17;100.00
21588;BME280;10956;48.878;13.316;2023-07-31T05:34:55;94216.81;;;15.13;100.00
21588;BME280;10956;48.878;13.316;2023-07-31T05:37:21;94215.72;;;15.14;100.00
21588;BME280;10956;48.878;13.316;2023-07-31T05:39:47;94213.56;;;15.16;100.00
21588;BME280;10956;48.878;13.316;2023-07-31T05:42:12;94217.50;;;15.18;100.00
21588;BME280;10956;48.878;13.316;2023-07-31T05:44:38;94214.25;;;15.22;100.00
21588;BME280;10956;48.878;13.316;2023-07-31T05:47:03;94214.06;;;15.32;100.00
21588;BME280;10956;48.878;13.316;2023-07-31T05:49:29;94218.09;;;15.29;100.00
21588;BME280;10956;48.878;13.316;2023-07-31T05:51:55;94217.50;;;15.32;100.00
21588;BME280;10956;48.878;13.316;2023-07-31T05:54:20;94221.84;;;15.42;100.00
21588;BME280;10956;48.878;13.316;2023-07-31T05:56:46;94213.59;;;15.57;100.00
21588;BME280;10956;48.878;13.316;2023-07-31T05:59:12;94210.16;;;15.70;100.00
21588;BME280;10956;48.878;13.316;2023-07-31T06:01:37;94208.38;;;15.79;98.91
21588;BME280;10956;48.878;13.316;2023-07-31T06:04:03;94208.66;;;15.92;97.78
21588;BME280;10956;48.878;13.316;2023-07-31T06:06:28;94209.00;;;16.12;96.89
21588;BME280;10956;48.878;13.316;2023-07-31T06:08:54;94211.38;;;16.36;95.22
21588;BME280;10956;48.878;13.316;2023-07-31T06:11:20;94209.63;;;16.68;94.30
21588;BME280;10956;48.878;13.316;2023-07-31T06:13:46;94202.47;;;16.77;93.15
21588;BME280;10956;48.878;13.316;2023-07-31T06:16:13;94204.41;;;16.85;93.12
21588;BME280;10956;48.878;13.316;2023-07-31T06:18:38;94201.78;;;16.94;92.85
21588;BME280;10956;48.878;13.316;2023-07-31T06:21:04;94206.38;;;17.02;92.64
21588;BME280;10956;48.878;13.316;2023-07-31T06:23:29;94202.53;;;17.17;92.27
21588;BME280;10956;48.878;13.316;2023-07-31T06:25:54;94204.66;;;17.37;91.77
21588;BME280;10956;48.878;13.316;2023-07-31T06:28:20;94208.56;;;17.70;91.02
21588;BME280;10956;48.878;13.316;2023-07-31T06:30:45;94203.63;;;18.03;89.55
21588;BME280;10956;48.878;13.316;2023-07-31T06:33:11;94207.72;;;18.18;89.10
21588;BME280;10956;48.878;13.316;2023-07-31T06:35:36;94207.09;;;18.30;87.65
21588;BME280;10956;48.878;13.316;2023-07-31T06:38:02;94213.06;;;18.35;87.04
21588;BME280;10956;48.878;13.316;2023-07-31T06:40:28;94214.63;;;18.36;87.16
21588;BME280;10956;48.878;13.316;2023-07-31T06:42:53;94206.31;;;18.38;88.01
21588;BME280;10956;48.878;13.316;2023-07-31T06:45:19;94216.03;;;18.43;88.87
21588;BME280;10956;48.878;13.316;2023-07-31T06:47:44;94211.81;;;18.42;89.12
21588;BME280;10956;48.878;13.316;2023-07-31T06:50:10;94207.09;;;18.38;88.58
21588;BME280;10956;48.878;13.316;2023-07-31T06:52:35;94214.63;;;18.36;87.59
21588;BME280;10956;48.878;13.316;2023-07-31T06:55:18;94201.75;;;18.38;87.89
21588;BME280;10956;48.878;13.316;2023-07-31T06:57:44;94203.66;;;18.38;88.10
21588;BME280;10956;48.878;13.316;2023-07-31T07:00:10;94206.94;;;18.35;87.63
21588;BME280;10956;48.878;13.316;2023-07-31T07:02:35;94211.50;;;18.34;87.46
21588;BME280;10956;48.878;13.316;2023-07-31T07:05:01;94216.19;;;18.55;88.19
21588;BME280;10956;48.878;13.316;2023-07-31T07:07:27;94209.28;;;18.88;88.00
21588;BME280;10956;48.878;13.316;2023-07-31T07:09:53;94212.38;;;19.16;87.15
21588;BME280;10956;48.878;13.316;2023-07-31T07:12:18;94211.50;;;19.42;86.30
21588;BME280;10956;48.878;13.316;2023-07-31T07:14:44;94210.59;;;19.76;85.21
21588;BME280;10956;48.878;13.316;2023-07-31T07:17:11;94215.03;;;20.01;83.82
21588;BME280;10956;48.878;13.316;2023-07-31T07:19:40;94207.16;;;20.25;83.49
21588;BME280;10956;48.878;13.316;2023-07-31T07:22:05;94209.50;;;20.27;82.63
21588;BME280;10956;48.878;13.316;2023-07-31T07:24:31;94209.19;;;20.28;83.18
21588;BME280;10956;48.878;13.316;2023-07-31T07:26:56;94208.72;;;20.26;83.25
21588;BME280;10956;48.878;13.316;2023-07-31T07:29:22;94210.63;;;20.26;83.57
21588;BME280;10956;48.878;13.316;2023-07-31T07:31:47;94206.31;;;20.33;82.79
21588;BME280;10956;48.878;13.316;2023-07-31T07:34:13;94205.84;;;20.31;80.60
21588;BME280;10956;48.878;13.316;2023-07-31T07:36:38;94211.84;;;20.28;79.32
21588;BME280;10956;48.878;13.316;2023-07-31T07:39:04;94208.72;;;20.26;78.31
21588;BME280;10956;48.878;13.316;2023-07-31T07:41:30;94203.63;;;20.13;78.52
21588;BME280;10956;48.878;13.316;2023-07-31T07:43:55;94199.28;;;19.99;77.96
21588;BME280;10956;48.878;13.316;2023-07-31T07:46:21;94205.81;;;19.90;78.46
21588;BME280;10956;48.878;13.316;2023-07-31T07:48:46;94191.06;;;19.84;79.76
21588;BME280;10956;48.878;13.316;2023-07-31T07:51:12;94187.66;;;19.75;80.43
21588;BME280;10956;48.878;13.316;2023-07-31T07:53:37;94194.66;;;19.58;79.94
21588;BME280;10956;48.878;13.316;2023-07-31T07:56:03;94192.63;;;19.47;80.37
21588;BME280;10956;48.878;13.316;2023-07-31T07:58:28;94189.94;;;19.55;81.24
21588;BME280;10956;48.878;13.316;2023-07-31T08:00:53;94188.94;;;19.68;81.37
21588;BME280;10956;48.878;13.316;2023-07-31T08:03:19;94189.63;;;19.86;81.38
21588;BME280;10956;48.878;13.316;2023-07-31T08:05:44;94191.88;;;20.05;80.39
21588;BME280;10956;48.878;13.316;2023-07-31T08:08:14;94182.34;;;20.16;79.30
21588;BME280;10956;48.878;13.316;2023-07-31T08:10:41;94178.03;;;20.24;78.59
21588;BME280;10956;48.878;13.316;2023-07-31T08:13:06;94182.22;;;20.33;77.95
21588;BME280;10956;48.878;13.316;2023-07-31T08:15:31;94180.81;;;20.57;78.06
21588;BME280;10956;48.878;13.316;2023-07-31T08:17:57;94188.59;;;20.83;77.85
21588;BME280;10956;48.878;13.316;2023-07-31T08:20:22;94182.50;;;20.94;76.67
21588;BME280;10956;48.878;13.316;2023-07-31T08:22:48;94184.09;;;21.08;75.36
21588;BME280;10956;48.878;13.316;2023-07-31T08:25:13;94182.88;;;21.17;75.25
21588;BME280;10956;48.878;13.316;2023-07-31T08:27:43;94191.97;;;21.25;74.32
21588;BME280;10956;48.878;13.316;2023-07-31T08:30:08;94186.41;;;21.30;74.00
21588;BME280;10956;48.878;13.316;2023-07-31T08:32:34;94183.06;;;21.45;74.53
21588;BME280;10956;48.878;13.316;2023-07-31T08:34:59;94187.53;;;21.66;74.25
21588;BME280;10956;48.878;13.316;2023-07-31T08:37:25;94185.97;;;21.77;74.40
21588;BME280;10956;48.878;13.316;2023-07-31T08:39:50;94190.66;;;21.92;73.60
21588;BME280;10956;48.878;13.316;2023-07-31T08:42:16;94191.03;;;22.03;73.19
21588;BME280;10956;48.878;13.316;2023-07-31T08:44:43;94191.66;;;22.00;73.05
21588;BME280;10956;48.878;13.316;2023-07-31T08:47:09;94187.75;;;21.97;72.38
21588;BME280;10956;48.878;13.316;2023-07-31T08:49:36;94187.88;;;22.01;72.33
21588;BME280;10956;48.878;13.316;2023-07-31T08:52:03;94184.19;;;22.05;72.20
21588;BME280;10956;48.878;13.316;2023-07-31T08:54:29;94186.66;;;22.10;72.01
21588;BME280;10956;48.878;13.316;2023-07-31T08:56:56;94189.53;;;22.17;72.01
21588;BME280;10956;48.878;13.316;2023-07-31T08:59:23;94194.69;;;22.22;72.37
21588;BME280;10956;48.878;13.316;2023-07-31T09:01:50;94184.84;;;22.14;71.25
21588;BME280;10956;48.878;13.316;2023-07-31T09:04:19;94188.31;;;22.15;71.77
21588;BME280;10956;48.878;13.316;2023-07-31T09:06:45;94186.19;;;22.20;71.61
21588;BME280;10956;48.878;13.316;2023-07-31T09:09:12;94197.34;;;22.35;71.39
21588;BME280;10956;48.878;13.316;2023-07-31T09:11:37;94183.44;;;22.45;70.58
21588;BME280;10956;48.878;13.316;2023-07-31T09:14:03;94195.50;;;22.51;70.18
21588;BME280;10956;48.878;13.316;2023-07-31T09:16:34;94196.88;;;22.45;70.23
21588;BME280;10956;48.878;13.316;2023-07-31T09:19:00;94191.97;;;22.35;70.45
21588;BME280;10956;48.878;13.316;2023-07-31T09:21:27;94197.09;;;22.40;70.72
21588;BME280;10956;48.878;13.316;2023-07-31T09:23:53;94188.09;;;22.60;70.57
21588;BME280;10956;48.878;13.316;2023-07-31T09:26:33;94176.97;;;22.74;70.52
21588;BME280;10956;48.878;13.316;2023-07-31T09:29:00;94176.63;;;22.75;69.30
21588;BME280;10956;48.878;13.316;2023-07-31T09:31:52;94181.97;;;22.87;69.43
21588;BME280;10956;48.878;13.316;2023-07-31T09:34:18;94178.44;;;22.99;69.39
21588;BME280;10956;48.878;13.316;2023-07-31T09:36:46;94172.03;;;23.04;69.11
21588;BME280;10956;48.878;13.316;2023-07-31T09:39:12;94176.97;;;23.02;68.97
21588;BME280;10956;48.878;13.316;2023-07-31T09:41:39;94172.97;;;22.96;69.69
21588;BME280;10956;48.878;13.316;2023-07-31T09:44:05;94170.19;;;22.92;70.09
21588;BME280;10956;48.878;13.316;2023-07-31T09:46:31;94169.25;;;22.72;70.41
21588;BME280;10956;48.878;13.316;2023-07-31T09:49:09;94159.97;;;22.42;71.20
21588;BME280;10956;48.878;13.316;2023-07-31T09:51:36;94157.78;;;22.19;71.80
21588;BME280;10956;48.878;13.316;2023-07-31T09:54:13;94162.25;;;22.15;72.82
21588;BME280;10956;48.878;13.316;2023-07-31T09:56:43;94156.22;;;22.18;71.77
21588;BME280;10956;48.878;13.316;2023-07-31T09:59:14;94152.88;;;22.09;72.33
21588;BME280;10956;48.878;13.316;2023-07-31T10:01:41;94142.16;;;22.09;72.24
21588;BME280;10956;48.878;13.316;2023-07-31T10:04:11;94145.19;;;22.08;72.43
21588;BME280;10956;48.878;13.316;2023-07-31T10:06:38;94142.91;;;22.22;72.30
21588;BME280;10956;48.878;13.316;2023-07-31T10:09:08;94137.56;;;22.50;72.15
21588;BME280;10956;48.878;13.316;2023-07-31T10:11:40;94128.50;;;22.70;70.87
21588;BME280;10956;48.878;13.316;2023-07-31T10:14:07;94125.47;;;23.00;70.37
21588;BME280;10956;48.878;13.316;2023-07-31T10:16:34;94121.94;;;23.27;71.25
21588;BME280;10956;48.878;13.316;2023-07-31T10:19:00;94116.72;;;23.50;70.97
21588;BME280;10956;48.878;13.316;2023-07-31T10:21:27;94113.34;;;23.69;70.15
21588;BME280;10956;48.878;13.316;2023-07-31T10:23:53;94107.66;;;23.90;68.60
21588;BME280;10956;48.878;13.316;2023-07-31T10:26:21;94094.56;;;23.88;68.09
21588;BME280;10956;48.878;13.316;2023-07-31T10:28:50;94098.59;;;23.98;68.19
21588;BME280;10956;48.878;13.316;2023-07-31T10:31:18;94093.28;;;24.01;67.52
21588;BME280;10956;48.878;13.316;2023-07-31T10:33:44;94088.78;;;24.05;68.24
21588;BME280;10956;48.878;13.316;2023-07-31T10:36:17;94092.75;;;24.11;68.64
21588;BME280;10956;48.878;13.316;2023-07-31T10:38:43;94087.56;;;24.22;69.12
21588;BME280;10956;48.878;13.316;2023-07-31T10:41:09;94090.09;;;24.31;68.94
21588;BME280;10956;48.878;13.316;2023-07-31T10:43:36;94089.00;;;24.16;67.51
21588;BME280;10956;48.878;13.316;2023-07-31T10:46:06;94083.31;;;24.02;67.90
21588;BME280;10956;48.878;13.316;2023-07-31T10:48:38;94089.59;;;23.90;68.21
21588;BME280;10956;48.878;13.316;2023-07-31T10:51:10;94088.75;;;23.86;68.03
21588;BME280;10956;48.878;13.316;2023-07-31T10:53:37;94084.19;;;23.71;68.00
21588;BME280;10956;48.878;13.316;2023-07-31T10:56:07;94076.03;;;23.51;70.04
21588;BME280;10956;48.878;13.316;2023-07-31T10:58:35;94075.88;;;23.44;71.22
21588;BME280;10956;48.878;13.316;2023-07-31T11:01:02;94077.84;;;23.47;70.82
21588;BME280;10956;48.878;13.316;2023-07-31T11:03:46;94066.91;;;23.72;70.50
21588;BME280;10956;48.878;13.316;2023-07-31T11:06:13;94060.69;;;23.87;70.27
21588;BME280;10956;48.878;13.316;2023-07-31T11:08:44;94059.28;;;23.93;71.02
21588;BME280;10956;48.878;13.316;2023-07-31T11:11:14;94058.28;;;23.82;70.87
21588;BME280;10956;48.878;13.316;2023-07-31T11:16:10;94048.03;;;23.37;70.66
21588;BME280;10956;48.878;13.316;2023-07-31T11:18:38;94060.88;;;23.28;70.70
21588;BME280;10956;48.878;13.316;2023-07-31T11:21:04;94050.75;;;23.21;70.81
21588;BME280;10956;48.878;13.316;2023-07-31T11:23:30;94048.75;;;23.18;70.19
21588;BME280;10956;48.878;13.316;2023-07-31T11:25:59;94051.63;;;23.09;71.82
21588;BME280;10956;48.878;13.316;2023-07-31T11:28:25;94037.22;;;23.02;72.81
21588;BME280;10956;48.878;13.316;2023-07-31T11:30:50;94040.44;;;23.07;72.89
21588;BME280;10956;48.878;13.316;2023-07-31T11:33:16;94038.44;;;23.20;72.72
21588;BME280;10956;48.878;13.316;2023-07-31T11:35:44;94038.75;;;23.34;72.50
21588;BME280;10956;48.878;13.316;2023-07-31T11:38:12;94035.25;;;23.49;71.33
21588;BME280;10956;48.878;13.316;2023-07-31T11:40:44;94022.03;;;23.76;71.04
21588;BME280;10956;48.878;13.316;2023-07-31T11:43:10;94019.22;;;23.88;71.12
21588;BME280;10956;48.878;13.316;2023-07-31T11:45:37;94024.81;;;23.99;70.50
21588;BME280;10956;48.878;13.316;2023-07-31T11:48:04;94017.38;;;24.11;70.13
21588;BME280;10956;48.878;13.316;2023-07-31T11:50:33;94007.75;;;24.30;70.01
21588;BME280;10956;48.878;13.316;2023-07-31T11:53:00;94009.56;;;24.45;70.38
21588;BME280;10956;48.878;13.316;2023-07-31T11:55:29;94000.72;;;24.67;70.67
21588;BME280;10956;48.878;13.316;2023-07-31T11:57:57;93996.59;;;24.73;69.38
21588;BME280;10956;48.878;13.316;2023-07-31T12:00:23;94000.41;;;24.50;68.82
21588;BME280;10956;48.878;13.316;2023-07-31T12:02:50;93992.31;;;24.27;69.69
21588;BME280;10956;48.878;13.316;2023-07-31T12:05:16;93987.19;;;24.02;69.00
21588;BME280;10956;48.878;13.316;2023-07-31T12:07:50;93991.66;;;23.95;69.09
21588;BME280;10956;48.878;13.316;2023-07-31T12:13:00;93987.09;;;23.60;70.19
21588;BME280;10956;48.878;13.316;2023-07-31T12:15:44;93971.56;;;23.53;70.66
21588;BME280;10956;48.878;13.316;2023-07-31T12:18:15;93991.22;;;23.38;72.08
21588;BME280;10956;48.878;13.316;2023-07-31T12:20:46;93989.88;;;23.13;72.62
21588;BME280;10956;48.878;13.316;2023-07-31T12:23:16;93987.56;;;22.96;73.19
21588;BME280;10956;48.878;13.316;2023-07-31T12:25:42;93981.41;;;22.95;73.55
21588;BME280;10956;48.878;13.316;2023-07-31T12:28:08;93971.19;;;23.01;73.49
21588;BME280;10956;48.878;13.316;2023-07-31T12:30:38;93973.91;;;23.20;73.64
21588;BME280;10956;48.878;13.316;2023-07-31T12:33:15;93965.94;;;23.59;72.77
21588;BME280;10956;48.878;13.316;2023-07-31T12:35:45;93962.66;;;23.49;72.97
21588;BME280;10956;48.878;13.316;2023-07-31T12:38:12;93959.06;;;23.26;74.30
21588;BME280;10956;48.878;13.316;2023-07-31T12:40:40;93957.75;;;23.01;76.69
21588;BME280;10956;48.878;13.316;2023-07-31T12:43:06;93954.56;;;22.79;76.60
21588;BME280;10956;48.878;13.316;2023-07-31T12:45:32;93951.75;;;22.60;77.09
21588;BME280;10956;48.878;13.316;2023-07-31T12:47:58;93942.94;;;22.44;77.13
21588;BME280;10956;48.878;13.316;2023-07-31T12:50:24;93935.38;;;22.34;76.83
21588;BME280;10956;48.878;13.316;2023-07-31T12:52:51;93923.53;;;22.35;77.43
21588;BME280;10956;48.878;13.316;2023-07-31T12:55:16;93914.78;;;22.38;80.17
21588;BME280;10956;48.878;13.316;2023-07-31T12:57:43;93925.88;;;22.52;76.66